createdAt,value
2023-05-02T00:04:19.525Z,11.90
2023-05-02T00:09:23.559Z,11.86
2023-05-02T00:14:28.303Z,11.83
2023-05-02T00:19:31.551Z,11.79
2023-05-02T00:24:34.787Z,11.73
2023-05-02T00:29:38.232Z,11.67
2023-05-02T00:34:41.759Z,11.60
2023-05-02T00:40:08.398Z,11.57
2023-05-02T00:45:12.728Z,11.51
2023-05-02T00:50:18.104Z,11.45
2023-05-02T00:55:21.313Z,11.42
2023-05-02T01:00:31.646Z,11.36
2023-05-02T01:05:50.445Z,11.32
2023-05-02T01:11:13.312Z,11.27
2023-05-02T01:19:58.660Z,11.32
2023-05-02T01:25:21.190Z,11.29
2023-05-02T01:30:28.448Z,11.22
2023-05-02T01:35:36.003Z,11.15
2023-05-02T01:40:40.700Z,11.07
2023-05-02T01:45:45.994Z,11.03
2023-05-02T01:50:50.747Z,10.97
2023-05-02T01:55:55.854Z,10.93
2023-05-02T02:01:01.832Z,10.93
2023-05-02T02:06:06.896Z,10.89
2023-05-02T02:11:13.637Z,10.90
2023-05-02T02:16:24.947Z,10.93
2023-05-02T02:21:33.062Z,10.92
2023-05-02T02:26:37.852Z,10.87
2023-05-02T02:31:41.031Z,10.82
2023-05-02T02:36:51.406Z,10.75
2023-05-02T02:42:11.384Z,10.70
2023-05-02T02:47:42.945Z,10.64
2023-05-02T02:52:59.586Z,10.57
2023-05-02T02:58:17.830Z,10.47
2023-05-02T03:03:29.225Z,10.44
2023-05-02T03:08:50.658Z,10.38
2023-05-02T03:13:54.376Z,10.31
2023-05-02T03:18:58.615Z,10.27
2023-05-02T03:24:04.324Z,10.24
2023-05-02T03:29:08.398Z,10.19
2023-05-02T03:34:13.492Z,10.17
2023-05-02T03:39:17.613Z,10.12
2023-05-02T03:44:21.106Z,10.12
2023-05-02T03:49:24.329Z,10.16
2023-05-02T03:54:28.137Z,10.17
2023-05-02T03:59:35.651Z,10.19
2023-05-02T04:04:44.064Z,10.21
2023-05-02T04:09:50.413Z,10.27
2023-05-02T04:14:53.894Z,10.28
2023-05-02T04:20:03.152Z,10.29
2023-05-02T04:25:09.828Z,10.35
2023-05-02T04:30:16.111Z,10.43
2023-05-02T04:35:23.213Z,10.47
2023-05-02T04:40:26.576Z,10.48
2023-05-02T04:45:37.386Z,10.59
2023-05-02T04:50:46.754Z,10.69
2023-05-02T04:55:50.325Z,10.80
2023-05-02T05:00:55.008Z,10.93
2023-05-02T05:05:58.085Z,11.07
2023-05-02T05:11:02.419Z,11.22
2023-05-02T05:16:06.848Z,11.39
2023-05-02T05:21:11.538Z,11.64
2023-05-02T05:26:17.216Z,11.93
2023-05-02T05:31:25.107Z,12.22
2023-05-02T05:36:31.678Z,12.48
2023-05-02T05:41:36.064Z,12.73
2023-05-02T05:46:42.655Z,12.95
2023-05-02T05:51:47.995Z,13.20
2023-05-02T05:56:53.058Z,13.53
2023-05-02T06:01:57.804Z,13.83
2023-05-02T06:07:01.926Z,14.11
2023-05-02T06:12:06.362Z,14.40
2023-05-02T06:17:10.492Z,14.68
2023-05-02T06:22:14.300Z,14.94
2023-05-02T06:27:17.507Z,15.20
2023-05-02T06:32:21.999Z,15.44
2023-05-02T06:37:25.151Z,15.63
2023-05-02T06:42:28.380Z,15.85
2023-05-02T06:47:31.920Z,16.11
2023-05-02T06:52:35.708Z,16.35
2023-05-02T06:57:38.872Z,16.59
2023-05-02T07:02:42.285Z,16.78
2023-05-02T07:07:45.963Z,16.94
2023-05-02T07:12:49.175Z,17.10
2023-05-02T07:17:53.621Z,17.26
2023-05-02T07:22:57.102Z,17.42
2023-05-02T07:28:00.322Z,17.61
2023-05-02T07:33:03.574Z,17.82
2023-05-02T07:38:07.098Z,18.02
2023-05-02T07:43:11.277Z,18.19
2023-05-02T07:48:14.821Z,18.34
2023-05-02T07:53:18.267Z,18.47
2023-05-02T07:58:21.411Z,18.59
2023-05-02T08:03:24.759Z,18.68
2023-05-02T08:08:28.443Z,18.81
2023-05-02T08:13:31.660Z,18.88
2023-05-02T08:18:34.836Z,18.82
2023-05-02T08:23:38.077Z,18.79
2023-05-02T08:28:42.499Z,18.77
2023-05-02T08:33:48.519Z,18.78
2023-05-02T08:38:52.056Z,18.79
2023-05-02T08:43:56.734Z,18.87
2023-05-02T08:49:01.915Z,19.01
2023-05-02T08:54:10.003Z,19.16
2023-05-02T08:59:13.128Z,19.19
2023-05-02T09:04:18.574Z,19.18
2023-05-02T09:09:21.688Z,19.21
2023-05-02T09:14:24.900Z,19.27
2023-05-02T09:19:28.768Z,19.30
2023-05-02T09:24:32.841Z,19.30
2023-05-02T09:29:36.537Z,19.31
2023-05-02T09:34:42.380Z,19.33
2023-05-02T09:40:06.735Z,19.36
2023-05-02T09:45:20.856Z,19.34
2023-05-02T09:50:38.097Z,19.30
2023-05-02T09:55:43.711Z,19.30
2023-05-02T10:00:47.034Z,19.38
2023-05-02T10:05:51.086Z,19.47
2023-05-02T10:10:56.782Z,19.60
2023-05-02T10:16:05.311Z,19.88
2023-05-02T10:25:19.652Z,20.33
2023-05-02T10:30:24.390Z,20.49
2023-05-02T10:35:31.858Z,20.63
2023-05-02T10:40:42.763Z,20.87
2023-05-02T10:45:45.995Z,21.19
2023-05-02T11:25:31.795Z,22.38
2023-05-02T11:30:37.706Z,22.52
2023-05-02T11:35:43.664Z,22.60
2023-05-02T11:40:55.182Z,22.66
2023-05-02T11:46:00.470Z,22.80
2023-05-02T11:51:07.514Z,22.95
2023-05-02T11:56:10.952Z,22.84
2023-05-02T12:01:16.449Z,22.77
2023-05-02T12:06:20.500Z,22.73
2023-05-02T12:11:24.260Z,22.86
2023-05-02T12:16:27.601Z,23.15
2023-05-02T12:21:33.786Z,23.27
2023-05-02T12:26:37.022Z,23.62
2023-05-02T12:31:40.738Z,23.63
2023-05-02T12:36:45.603Z,23.42
2023-05-02T12:41:54.263Z,23.18
2023-05-02T12:47:01.592Z,22.96
2023-05-02T12:52:05.276Z,22.71
2023-05-02T12:57:08.894Z,22.50
2023-05-02T13:02:12.972Z,22.35
2023-05-02T13:07:16.143Z,22.22
2023-05-02T13:12:19.340Z,22.10
2023-05-02T13:17:22.813Z,21.95
2023-05-02T13:22:26.708Z,21.76
2023-05-02T13:27:29.919Z,21.52
2023-05-02T13:32:33.127Z,21.28
2023-05-02T13:37:36.350Z,20.84
2023-05-02T13:42:39.346Z,20.28
2023-05-02T13:47:42.407Z,19.72
2023-05-02T13:52:47.726Z,19.30
2023-05-02T13:57:52.013Z,18.71
2023-05-02T14:02:55.774Z,18.28
2023-05-02T14:07:58.899Z,17.95
2023-05-02T14:13:02.068Z,17.66
2023-05-02T14:18:05.147Z,17.47
2023-05-02T14:23:08.550Z,17.23
2023-05-02T14:28:12.136Z,17.01
2023-05-02T14:33:15.505Z,16.94
2023-05-02T14:38:18.509Z,16.84
2023-05-02T14:43:21.683Z,16.73
2023-05-02T14:48:25.004Z,16.66
2023-05-02T14:53:28.175Z,16.58
2023-05-02T14:58:31.195Z,16.56
2023-05-02T15:03:36.378Z,16.43
2023-05-02T15:08:45.040Z,16.29
2023-05-02T15:13:48.047Z,16.12
2023-05-02T15:18:51.123Z,16.10
2023-05-02T15:23:54.166Z,16.15
2023-05-02T15:28:57.756Z,16.22
2023-05-02T15:34:00.789Z,16.33
2023-05-02T15:39:07.332Z,16.49
2023-05-02T15:44:11.076Z,16.53
2023-05-02T15:49:14.363Z,16.53
2023-05-02T15:54:17.435Z,16.49
2023-05-02T15:59:21.041Z,16.42
2023-05-02T16:04:25.366Z,16.41
2023-05-02T16:09:31.374Z,16.40
2023-05-02T16:14:34.940Z,16.41
2023-05-02T16:19:38.088Z,16.43
2023-05-02T16:24:41.437Z,16.40
2023-05-02T16:29:44.397Z,16.42
2023-05-02T16:34:47.356Z,16.40
2023-05-02T16:39:50.599Z,16.36
2023-05-02T16:44:53.712Z,16.31
2023-05-02T16:49:58.544Z,16.33
2023-05-02T16:55:01.623Z,16.37
2023-05-02T17:00:05.684Z,16.43
2023-05-02T17:05:10.802Z,16.44
2023-05-02T17:10:13.778Z,16.42
2023-05-02T17:15:16.862Z,16.37
2023-05-02T17:20:20.670Z,16.39
2023-05-02T17:25:28.168Z,16.39
2023-05-02T17:30:34.105Z,16.38
2023-05-02T17:35:37.184Z,16.37
2023-05-02T17:40:40.500Z,16.32
2023-05-02T17:45:45.082Z,16.22
2023-05-02T17:50:50.157Z,16.23
2023-05-02T17:55:53.289Z,16.29
2023-05-02T18:00:57.014Z,16.30
2023-05-02T18:05:59.945Z,16.34
2023-05-02T18:11:03.627Z,16.29
2023-05-02T18:16:06.866Z,16.26
2023-05-02T18:21:10.546Z,16.19
2023-05-02T18:26:14.192Z,16.17
2023-05-02T18:31:17.965Z,16.19
2023-05-02T18:36:26.186Z,16.10
2023-05-02T18:41:29.400Z,16.02
2023-05-02T18:46:32.446Z,16.00
2023-05-02T18:51:35.843Z,15.99
2023-05-02T18:56:38.825Z,15.99
2023-05-02T19:01:41.808Z,16.02
2023-05-02T19:06:45.306Z,15.94
2023-05-02T19:11:48.410Z,15.86
2023-05-02T19:16:51.578Z,15.76
2023-05-02T19:21:54.530Z,15.70
2023-05-02T19:26:57.948Z,15.74
2023-05-02T19:32:01.146Z,15.74
2023-05-02T19:37:04.447Z,15.71
2023-05-02T19:42:07.628Z,15.62
2023-05-02T19:47:11.174Z,15.58
2023-05-02T19:52:14.137Z,15.57
2023-05-02T19:57:18.020Z,15.52
2023-05-02T20:02:21.975Z,15.46
2023-05-02T20:07:24.993Z,15.47
2023-05-02T20:12:27.971Z,15.42
2023-05-02T20:25:34.415Z,15.40
2023-05-02T20:30:39.232Z,15.28
2023-05-02T20:35:42.285Z,15.25
2023-05-02T20:40:45.791Z,15.21
2023-05-02T20:45:49.134Z,15.14
2023-05-02T20:50:55.188Z,15.06
2023-05-02T20:55:58.209Z,15.07
2023-05-02T21:01:01.278Z,15.09
2023-05-02T21:06:04.505Z,15.16
2023-05-02T21:11:14.674Z,15.16
2023-05-02T21:16:19.131Z,15.11
2023-05-02T21:21:22.962Z,15.04
2023-05-02T21:26:26.370Z,14.98
2023-05-02T21:31:30.193Z,14.93
2023-05-02T21:36:33.256Z,14.95
2023-05-02T21:41:36.820Z,14.96
2023-05-02T21:46:41.074Z,14.97
2023-05-02T21:51:44.234Z,14.92
2023-05-02T21:56:47.248Z,14.86
2023-05-02T22:01:50.586Z,14.79
2023-05-02T22:06:53.969Z,14.76
2023-05-02T22:11:58.069Z,14.78
2023-05-02T22:17:04.881Z,14.79
2023-05-02T22:22:08.150Z,14.86
2023-05-02T22:27:11.151Z,14.88
2023-05-02T22:32:14.169Z,14.87
2023-05-02T22:37:17.320Z,14.82
2023-05-02T22:42:20.882Z,14.74
2023-05-02T22:47:23.943Z,14.68
2023-05-02T22:52:30.120Z,14.71
2023-05-02T22:57:33.163Z,14.77
2023-05-02T23:02:36.923Z,14.74
2023-05-02T23:07:40.317Z,14.77
2023-05-02T23:12:43.528Z,14.68
2023-05-02T23:17:46.600Z,14.61
2023-05-02T23:25:30.442Z,14.59
2023-05-02T23:30:33.814Z,14.59
2023-05-02T23:35:37.137Z,14.56
2023-05-02T23:40:40.123Z,14.49
2023-05-02T23:45:43.247Z,14.43
2023-05-02T23:50:46.400Z,14.38
2023-05-02T23:55:49.479Z,14.39
